Time;durP1;ratioP1;P1;durP2;ratioP2;P2;SDS_P1;SDS_P2;PMS_P1;PMS_P2;Temp;Humidity;BMP_temperature;BMP_pressure;BME280_temperature;BME280_humidity;BME280_pressure;Samples;Min_cycle;Max_cycle;Signal;HPM_P1;HPM_P2
2022/08/04 00:01:11;;;;;;;5.43;3.08;;;;;;;18.81;66.40;94123.66;5126743;28;20051;-75
2022/08/04 00:04:02;;;;;;;6.30;3.17;;;;;;;18.79;66.74;94129.41;5126895;28;20064;-76
2022/08/04 00:06:46;;;;;;;5.97;2.80;;;;;;;18.77;66.87;94123.56;5126472;28;20020;-76
2022/08/04 00:10:00;;;;;;;6.90;3.08;;;;;;;18.70;67.26;94120.72;5126455;28;20031;-76
2022/08/04 00:12:29;;;;;;;8.57;3.10;;;;;;;18.68;67.64;94124.94;5124364;28;20330;-76
2022/08/04 00:14:58;;;;;;;8.02;3.60;;;;;;;18.64;67.82;94120.25;5126275;28;20217;-75
2022/08/04 00:17:29;;;;;;;4.25;3.20;;;;;;;18.60;67.87;94124.00;5126157;28;20040;-75
2022/08/04 00:19:59;;;;;;;4.57;3.25;;;;;;;18.57;67.71;94124.75;5126308;28;20053;-76
2022/08/04 00:22:28;;;;;;;8.30;2.70;;;;;;;18.48;67.84;94119.56;5125485;28;20043;-76
2022/08/04 00:25:01;;;;;;;6.07;3.45;;;;;;;18.48;68.54;94110.66;5126217;27;20117;-76
2022/08/04 00:27:28;;;;;;;6.57;3.28;;;;;;;18.43;68.60;94103.66;5126164;28;20027;-76
2022/08/04 00:29:55;;;;;;;9.52;3.63;;;;;;;18.41;68.71;94106.69;5125925;28;20032;-76
2022/08/04 00:32:21;;;;;;;9.45;3.40;;;;;;;18.43;69.09;94103.66;5125934;27;20094;-75
2022/08/04 00:34:47;;;;;;;6.38;3.47;;;;;;;18.40;69.24;94102.44;5126049;28;20047;-75
2022/08/04 00:37:13;;;;;;;6.75;3.65;;;;;;;18.35;69.73;94101.94;5125939;27;20023;-76
2022/08/04 00:39:40;;;;;;;5.82;3.97;;;;;;;18.35;69.86;94101.94;5126015;28;20019;-75
2022/08/04 00:42:31;;;;;;;9.27;4.55;;;;;;;18.32;69.91;94108.06;5125601;28;20031;-75
2022/08/04 00:45:34;;;;;;;13.00;4.00;;;;;;;18.27;70.50;94111.03;5125944;28;20032;-76
2022/08/04 00:48:12;;;;;;;4.57;2.88;;;;;;;18.25;69.88;94114.88;5125819;28;20066;-75
2022/08/04 00:51:23;;;;;;;5.70;4.18;;;;;;;18.22;69.95;94114.81;5125921;28;20058;-76
2022/08/04 00:54:02;;;;;;;5.80;3.40;;;;;;;18.16;69.87;94117.00;5125692;28;20026;-76
2022/08/04 00:56:51;;;;;;;9.85;3.80;;;;;;;18.13;69.30;94123.09;5125187;28;20023;-75
2022/08/04 00:59:45;;;;;;;9.10;4.00;;;;;;;18.11;69.08;94124.59;5125511;28;20015;-76
2022/08/04 01:02:35;;;;;;;11.02;4.60;;;;;;;18.12;69.32;94131.56;5125689;27;20068;-76
2022/08/04 01:05:32;;;;;;;7.47;4.00;;;;;;;18.13;68.83;94130.41;5125546;28;20240;-76
2022/08/04 01:08:09;;;;;;;5.40;3.80;;;;;;;18.09;69.39;94138.44;5125358;28;20031;-76
2022/08/04 01:10:47;;;;;;;9.65;4.97;;;;;;;18.06;69.67;94139.16;5125094;28;20094;-76
2022/08/04 01:13:40;;;;;;;6.75;3.83;;;;;;;18.10;70.29;94134.59;5125114;28;20090;-75
2022/08/04 01:16:10;;;;;;;5.00;3.25;;;;;;;18.09;70.14;94141.13;5125336;28;20027;-76
2022/08/04 01:18:50;;;;;;;8.73;4.03;;;;;;;18.08;70.41;94136.88;5125115;28;20043;-75
2022/08/04 01:21:28;;;;;;;6.85;3.58;;;;;;;18.06;70.09;94141.84;5125007;28;20314;-76
2022/08/04 01:24:27;;;;;;;8.07;3.22;;;;;;;18.08;69.48;94144.19;5124927;28;20047;-76
2022/08/04 01:27:00;;;;;;;8.32;3.33;;;;;;;18.02;69.65;94144.47;5125017;28;20016;-76
2022/08/04 01:29:29;;;;;;;5.70;3.45;;;;;;;17.96;69.83;94150.50;5124863;28;20019;-75
2022/08/04 01:32:12;;;;;;;7.65;3.30;;;;;;;17.98;69.98;94142.84;5124750;28;20027;-76
2022/08/04 01:34:51;;;;;;;9.88;3.58;;;;;;;17.96;70.24;94134.31;5124012;28;20019;-76
2022/08/04 01:37:47;;;;;;;10.52;4.38;;;;;;;17.94;70.77;94125.78;5124838;28;20337;-75
2022/08/04 01:40:14;;;;;;;5.80;4.05;;;;;;;17.93;70.17;94118.81;5124630;28;20032;-76
2022/08/04 01:42:41;;;;;;;5.65;3.50;;;;;;;17.91;70.46;94115.69;5124688;28;20340;-75
2022/08/04 01:45:09;;;;;;;11.27;3.70;;;;;;;17.91;70.07;94118.41;5124729;27;20033;-75
2022/08/04 01:47:37;;;;;;;6.43;3.90;;;;;;;17.93;70.41;94119.63;5124601;28;20087;-75
2022/08/04 01:50:11;;;;;;;10.27;3.65;;;;;;;17.92;70.89;94117.28;5124217;28;20032;-75
2022/08/04 01:52:40;;;;;;;9.55;4.13;;;;;;;17.91;71.33;94116.50;5124421;28;20350;-75
2022/08/04 01:55:09;;;;;;;6.38;3.50;;;;;;;17.87;71.20;94125.63;5124280;28;20145;-74
2022/08/04 01:57:49;;;;;;;10.20;3.55;;;;;;;17.84;71.44;94125.19;5124456;28;20027;-75
2022/08/04 02:00:17;;;;;;;6.97;3.30;;;;;;;17.82;70.99;94132.81;5124012;28;20045;-74
2022/08/04 02:02:45;;;;;;;6.07;4.20;;;;;;;17.81;71.28;94133.97;5124333;28;20019;-74
2022/08/04 02:05:13;;;;;;;5.50;3.53;;;;;;;17.80;71.20;94137.78;5124331;28;20264;-75
2022/08/04 02:08:05;;;;;;;5.55;3.25;;;;;;;17.77;71.25;94138.50;5124098;28;20042;-75
2022/08/04 02:10:43;;;;;;;5.97;3.90;;;;;;;17.72;70.94;94138.75;5115732;28;20039;-75
2022/08/04 02:13:57;;;;;;;11.55;4.60;;;;;;;17.70;71.07;94132.16;5124057;28;20035;-75
2022/08/04 02:16:36;;;;;;;6.68;4.53;;;;;;;17.66;71.55;94132.09;5119035;28;20054;-75
2022/08/04 02:19:14;;;;;;;7.65;4.30;;;;;;;17.61;71.93;94129.69;5123895;28;20031;-74
2022/08/04 02:21:41;;;;;;;6.20;4.35;;;;;;;17.62;72.29;94123.13;5124072;27;20023;-74
2022/08/04 02:24:12;;;;;;;9.10;4.68;;;;;;;17.61;72.05;94124.28;5123793;28;20050;-75
2022/08/04 02:26:41;;;;;;;10.57;4.70;;;;;;;17.61;72.53;94116.19;5123613;28;20023;-74
2022/08/04 02:29:16;;;;;;;8.55;4.50;;;;;;;17.57;72.57;94113.41;5123670;28;20020;-75
2022/08/04 02:31:56;;;;;;;5.38;4.07;;;;;;;17.58;72.80;94108.81;5123738;28;20095;-74
2022/08/04 02:34:37;;;;;;;7.65;3.88;;;;;;;17.57;72.47;94112.63;5123548;28;20090;-76
2022/08/04 02:37:03;;;;;;;5.35;3.75;;;;;;;17.56;72.16;94109.16;5123481;28;20043;-74
2022/08/04 02:39:33;;;;;;;9.65;3.70;;;;;;;17.50;72.09;94110.53;5123462;28;20020;-75
2022/08/04 02:42:01;;;;;;;5.63;3.10;;;;;;;17.48;71.22;94115.50;5123415;28;20252;-75
2022/08/04 02:44:27;;;;;;;8.73;4.10;;;;;;;17.48;70.95;94120.13;5123154;28;20363;-75
2022/08/04 02:46:54;;;;;;;5.38;3.63;;;;;;;17.48;71.08;94130.91;5123297;28;20015;-75
2022/08/04 02:49:23;;;;;;;12.20;3.28;;;;;;;17.45;71.38;94122.38;5123480;28;20023;-75
2022/08/04 02:51:54;;;;;;;8.48;4.13;;;;;;;17.45;71.27;94125.06;5123537;28;20028;-74
2022/08/04 02:54:27;;;;;;;7.38;3.65;;;;;;;17.38;71.54;94133.00;5123320;28;20306;-74
2022/08/04 02:56:56;;;;;;;5.28;4.20;;;;;;;17.33;71.34;94130.56;5123211;28;20031;-75
2022/08/04 02:59:25;;;;;;;4.80;3.53;;;;;;;17.34;70.63;94129.44;5123207;28;20023;-75
2022/08/04 03:01:55;;;;;;;6.65;3.00;;;;;;;17.32;70.04;94136.28;5123376;28;20099;-74
2022/08/04 03:04:42;;;;;;;5.43;3.95;;;;;;;17.29;70.58;94137.78;5123282;28;20099;-75
2022/08/04 03:07:41;;;;;;;4.97;3.60;;;;;;;17.31;70.91;94135.53;5123097;28;20045;-74
2022/08/04 03:10:09;;;;;;;9.88;4.68;;;;;;;17.34;70.87;94139.41;5123159;28;20031;-74
2022/08/04 03:12:49;;;;;;;7.35;4.40;;;;;;;17.35;71.69;94138.31;5123129;28;20147;-74
2022/08/04 03:15:51;;;;;;;6.25;3.40;;;;;;;17.34;71.70;94128.66;5123389;28;20060;-74
2022/08/04 03:18:20;;;;;;;6.00;3.78;;;;;;;17.30;71.64;94133.97;5123249;28;20053;-75
2022/08/04 03:21:07;;;;;;;8.60;3.70;;;;;;;17.27;72.35;94134.66;5123107;28;20051;-74
2022/08/04 03:23:57;;;;;;;7.05;3.65;;;;;;;17.26;71.93;94135.81;5122990;28;20026;-75
2022/08/04 03:26:47;;;;;;;4.28;3.20;;;;;;;17.26;71.99;94127.72;5123121;28;20035;-75
2022/08/04 03:29:42;;;;;;;7.05;4.35;;;;;;;17.21;72.05;94127.97;5123272;28;20031;-75
2022/08/04 03:32:33;;;;;;;8.18;4.07;;;;;;;17.19;72.31;94131.00;5122890;28;20325;-75
2022/08/04 03:35:21;;;;;;;8.27;5.38;;;;;;;17.16;73.34;94131.72;5112630;28;20031;-75
2022/08/04 03:37:52;;;;;;;7.55;5.03;;;;;;;17.19;74.19;94130.22;5123018;28;20031;-75
2022/08/04 03:40:29;;;;;;;6.60;4.72;;;;;;;17.21;74.29;94125.28;5122906;28;20091;-75
2022/08/04 03:43:30;;;;;;;8.10;5.60;;;;;;;17.22;74.31;94129.53;5122856;28;20019;-75
2022/08/04 03:46:22;;;;;;;10.40;5.35;;;;;;;17.21;75.05;94127.97;5114307;28;20073;-75
2022/08/04 03:49:07;;;;;;;;;;;;;;;17.17;75.23;94129.78;5123266;28;20111;-75
2022/08/04 03:55:08;;;;;;;8.77;5.47;;;;;;;17.18;75.43;94123.28;5122919;28;20379;-76
2022/08/04 03:57:55;;;;;;;6.30;4.82;;;;;;;17.22;75.22;94124.16;5125499;28;20031;-75
2022/08/04 04:00:29;;;;;;;9.05;5.50;;;;;;;17.21;75.13;94125.28;5126779;28;20028;-75
2022/08/04 04:03:10;;;;;;;8.82;5.20;;;;;;;17.22;75.19;94132.25;5126721;27;20091;-75
2022/08/04 04:06:13;;;;;;;8.25;5.25;;;;;;;17.28;75.31;94133.53;5126632;28;20054;-75
2022/08/04 04:09:07;;;;;;;7.95;4.85;;;;;;;17.34;74.58;94137.53;5126535;28;20023;-75
2022/08/04 04:12:03;;;;;;;9.77;5.07;;;;;;;17.43;73.46;94135.41;5117703;28;20036;-75
2022/08/04 04:14:58;;;;;;;7.47;4.75;;;;;;;17.49;73.58;94132.47;5126352;28;20027;-76
2022/08/04 04:17:55;;;;;;;14.30;5.38;;;;;;;17.58;74.08;94136.53;5106653;27;20055;-75
2022/08/04 04:20:52;;;;;;;11.32;5.18;;;;;;;17.69;73.75;94142.19;5126426;28;20031;-75
2022/08/04 04:23:28;;;;;;;8.43;5.80;;;;;;;17.79;72.51;94141.63;5126180;28;20019;-75
2022/08/04 04:25:54;;;;;;;11.48;5.68;;;;;;;17.87;72.14;94153.41;5126056;28;20326;-75
2022/08/04 04:28:49;;;;;;;10.30;6.25;;;;;;;17.95;72.51;94146.22;5126172;28;20027;-75
2022/08/04 04:31:23;;;;;;;10.55;7.05;;;;;;;17.86;73.43;94148.34;5105770;28;20054;-75
2022/08/04 04:34:07;;;;;;;10.45;7.07;;;;;;;17.88;73.84;94154.16;5126236;28;20221;-75
2022/08/04 04:36:35;;;;;;;6.15;5.10;;;;;;;17.96;74.31;94155.88;5125906;28;20252;-75
2022/08/04 04:39:12;;;;;;;13.80;6.50;;;;;;;18.02;73.61;94149.09;5125854;28;20263;-75
2022/08/04 04:41:43;;;;;;;9.95;6.68;;;;;;;17.99;73.42;94149.78;5125932;28;20168;-75
2022/08/04 04:44:34;;;;;;;14.45;6.43;;;;;;;18.03;72.84;94148.75;5125808;28;20245;-75
2022/08/04 04:47:21;;;;;;;11.98;6.03;;;;;;;18.02;72.67;94149.09;5125770;28;20187;-75
2022/08/04 04:49:49;;;;;;;13.02;6.50;;;;;;;18.09;72.84;94151.13;5125660;28;20031;-75
2022/08/04 04:52:20;;;;;;;11.73;7.38;;;;;;;18.15;72.45;94158.59;5125782;28;20023;-75
2022/08/04 04:55:04;;;;;;;10.82;6.57;;;;;;;18.19;72.82;94148.66;5126036;28;20198;-75
2022/08/04 04:57:35;;;;;;;18.95;7.95;;;;;;;18.26;72.98;94148.03;5125554;28;20964;-75
2022/08/04 05:00:03;;;;;;;11.68;6.88;;;;;;;18.21;72.38;94142.91;5125311;28;20016;-75
2022/08/04 05:02:56;;;;;;;11.75;7.72;;;;;;;18.23;72.93;94146.81;5125427;28;20030;-75
2022/08/04 05:05:48;;;;;;;13.25;7.10;;;;;;;18.31;72.91;94146.97;5125481;28;20030;-75
2022/08/04 05:08:28;;;;;;;10.77;6.88;;;;;;;18.35;72.49;94139.72;5116174;28;20099;-75
2022/08/04 05:11:22;;;;;;;15.48;7.53;;;;;;;18.40;72.10;94142.16;5125175;28;20028;-76
2022/08/04 05:13:57;;;;;;;11.43;7.40;;;;;;;18.47;71.53;94146.91;5125480;28;20032;-75
2022/08/04 05:16:35;;;;;;;18.30;7.38;;;;;;;18.38;71.60;94150.59;5125108;28;20251;-75
2022/08/04 05:19:24;;;;;;;10.90;7.90;;;;;;;18.27;71.73;94154.22;5125158;28;20023;-75
2022/08/04 05:22:05;;;;;;;11.45;7.82;;;;;;;18.29;72.00;94165.44;5125181;28;20064;-75
2022/08/04 05:24:36;;;;;;;18.85;9.60;;;;;;;18.27;71.40;94159.63;5123887;28;20028;-76
2022/08/04 05:27:08;;;;;;;14.88;8.40;;;;;;;18.29;71.22;94168.13;5124805;28;20028;-76
2022/08/04 05:29:36;;;;;;;14.27;7.88;;;;;;;18.31;71.37;94165.84;5124685;28;20026;-76
2022/08/04 05:32:11;;;;;;;16.88;8.63;;;;;;;18.41;70.80;94170.69;5125075;28;20024;-75
2022/08/04 05:34:52;;;;;;;17.90;7.95;;;;;;;18.52;70.46;94166.31;5124738;28;20340;-76
2022/08/04 05:37:21;;;;;;;12.40;7.78;;;;;;;18.69;70.20;94167.78;5123898;28;20314;-76
2022/08/04 05:39:59;;;;;;;16.73;8.07;;;;;;;18.88;69.37;94169.69;5124716;28;20023;-76
2022/08/04 05:42:26;;;;;;;19.25;8.55;;;;;;;18.94;67.31;94165.56;5124756;28;20206;-75
2022/08/04 05:44:53;;;;;;;17.08;8.82;;;;;;;19.01;67.90;94171.09;5123434;28;20023;-75
2022/08/04 05:47:20;;;;;;;14.40;9.05;;;;;;;19.18;67.96;94169.06;5124483;28;20027;-75
2022/08/04 05:49:46;;;;;;;13.77;9.07;;;;;;;19.29;66.96;94166.53;5124559;28;20094;-76
2022/08/04 05:52:13;;;;;;;13.55;9.32;;;;;;;19.43;67.02;94172.19;5124498;28;20046;-75
2022/08/04 05:54:41;;;;;;;17.95;9.23;;;;;;;19.58;67.08;94165.06;5124464;28;20290;-76
2022/08/04 05:57:07;;;;;;;19.75;9.32;;;;;;;19.74;65.75;94171.16;5124314;28;20094;-76
2022/08/04 05:59:37;;;;;;;21.55;8.80;;;;;;;19.88;65.37;94161.69;5123037;28;20221;-76
2022/08/04 06:02:04;;;;;;;17.20;8.82;;;;;;;19.98;64.88;94166.47;5124348;28;20027;-76
2022/08/04 06:04:35;;;;;;;19.45;9.40;;;;;;;20.04;64.67;94159.59;5124305;28;20023;-75
2022/08/04 06:07:00;;;;;;;17.83;8.70;;;;;;;20.18;64.72;94164.44;5124103;27;20023;-75
2022/08/04 06:09:26;;;;;;;15.50;8.77;;;;;;;20.27;64.84;94166.84;5124100;27;20086;-75
2022/08/04 06:11:54;;;;;;;22.02;8.70;;;;;;;20.28;65.55;94174.63;5124079;28;20019;-75
2022/08/04 06:14:22;;;;;;;11.05;8.27;;;;;;;20.31;65.77;94173.09;5124142;28;20019;-75
2022/08/04 06:16:49;;;;;;;15.52;8.48;;;;;;;20.27;65.07;94183.88;5124115;28;20089;-75
2022/08/04 06:19:16;;;;;;;22.25;8.98;;;;;;;20.27;65.86;94181.16;5123443;28;20028;-75
2022/08/04 06:21:47;;;;;;;19.95;8.88;;;;;;;20.30;66.05;94188.56;5123831;28;20027;-75
2022/08/04 06:24:16;;;;;;;13.50;9.07;;;;;;;20.31;65.99;94189.34;5123974;28;20025;-75
2022/08/04 06:26:43;;;;;;;12.82;8.13;;;;;;;20.32;67.16;94186.28;5123945;28;20103;-75
2022/08/04 06:29:19;;;;;;;15.90;7.90;;;;;;;20.37;66.82;94183.25;5123799;28;20220;-75
2022/08/04 06:31:46;;;;;;;12.23;7.70;;;;;;;20.45;64.02;94173.28;5123730;27;20273;-75
2022/08/04 06:34:14;;;;;;;11.40;7.40;;;;;;;20.53;63.35;94172.22;5123896;28;20203;-74
2022/08/04 06:36:41;;;;;;;16.73;7.55;;;;;;;20.52;62.94;94178.03;5123699;28;20024;-75
2022/08/04 06:39:08;;;;;;;11.20;7.47;;;;;;;20.58;62.50;94176.53;5123612;28;20069;-75
2022/08/04 06:41:34;;;;;;;16.35;7.82;;;;;;;20.62;61.91;94175.47;5123506;28;20411;-76
2022/08/04 06:44:06;;;;;;;14.50;8.20;;;;;;;20.59;63.12;94170.75;5123655;28;20019;-76
2022/08/04 06:46:38;;;;;;;12.73;8.07;;;;;;;20.63;63.16;94178.94;5123452;28;20016;-76
2022/08/04 06:49:04;;;;;;;;;;;;;;;20.67;63.47;94184.41;5123909;28;20309;-76
2022/08/04 06:51:31;;;;;;;10.80;7.38;;;;;;;20.71;63.83;94186.00;5123592;28;19967;-76
2022/08/04 06:53:57;;;;;;;14.80;8.38;;;;;;;20.72;63.71;94189.47;5123481;28;20028;-76
2022/08/04 06:56:24;;;;;;;17.30;8.50;;;;;;;20.77;62.97;94189.16;5123506;28;20080;-76
2022/08/04 06:58:52;;;;;;;19.33;10.02;;;;;;;20.78;62.40;94191.50;5123364;28;20023;-76
2022/08/04 07:01:19;;;;;;;15.77;8.68;;;;;;;20.80;62.44;94199.25;5123617;28;20255;-76
2022/08/04 07:03:45;;;;;;;19.67;10.52;;;;;;;20.76;62.10;94190.31;5123463;28;20046;-76
2022/08/04 07:06:11;;;;;;;15.05;9.20;;;;;;;20.82;61.11;94188.81;5123240;28;20031;-76
2022/08/04 07:08:38;;;;;;;24.60;9.82;;;;;;;20.87;61.05;94185.78;5123067;28;20028;-75
2022/08/04 07:11:04;;;;;;;29.48;10.35;;;;;;;20.92;60.73;94187.38;5123124;28;20333;-76
2022/08/04 07:13:30;;;;;;;17.25;9.27;;;;;;;21.01;60.74;94185.94;5123012;28;20027;-76
2022/08/04 07:15:58;;;;;;;15.20;8.50;;;;;;;21.17;60.98;94190.38;5123110;28;20049;-76
2022/08/04 07:18:23;;;;;;;14.85;8.90;;;;;;;21.34;60.99;94189.75;5122951;28;20047;-76
2022/08/04 07:20:50;;;;;;;33.33;12.48;;;;;;;21.53;61.09;94186.06;5123330;28;20016;-76
2022/08/04 07:23:21;;;;;;;75.22;20.70;;;;;;;21.72;60.52;94182.34;5123106;28;20252;-76
2022/08/04 07:25:56;;;;;;;36.55;12.10;;;;;;;21.78;59.15;94186.28;5123297;28;20031;-76
2022/08/04 07:28:24;;;;;;;24.70;10.07;;;;;;;21.96;58.33;94182.91;5123248;28;20028;-76
2022/08/04 07:30:51;;;;;;;18.15;9.60;;;;;;;22.16;57.64;94177.97;5123143;28;20047;-76
2022/08/04 07:33:17;;;;;;;17.38;10.30;;;;;;;22.18;57.17;94178.38;5127032;28;20326;-76
2022/08/04 07:35:44;;;;;;;17.67;9.73;;;;;;;22.29;56.85;94173.84;5126951;28;20050;-76
2022/08/04 07:38:10;;;;;;;21.33;9.50;;;;;;;22.35;57.89;94175.03;5126886;28;20051;-76
2022/08/04 07:40:36;;;;;;;15.85;8.38;;;;;;;22.57;57.67;94173.19;5126949;28;20022;-76
2022/08/04 07:43:02;;;;;;;14.95;9.88;;;;;;;22.78;55.99;94169.00;5127120;28;20027;-76
2022/08/04 07:45:28;;;;;;;21.40;9.77;;;;;;;22.94;55.39;94177.59;5126698;28;20089;-76
2022/08/04 07:47:54;;;;;;;14.18;10.40;;;;;;;23.11;55.23;94169.88;5126543;27;20031;-76
2022/08/04 07:50:20;;;;;;;21.13;9.88;;;;;;;23.29;55.76;94173.41;5126909;28;20058;-76
2022/08/04 07:52:45;;;;;;;15.77;9.15;;;;;;;23.44;55.47;94182.34;5126824;28;20085;-76
2022/08/04 07:55:12;;;;;;;20.27;9.75;;;;;;;23.52;55.03;94173.03;5125613;28;20024;-76
2022/08/04 07:57:37;;;;;;;16.73;9.57;;;;;;;23.56;54.08;94179.25;5126755;27;20023;-76
2022/08/04 08:00:04;;;;;;;28.38;9.05;;;;;;;23.61;53.80;94187.03;5126503;28;20015;-76
2022/08/04 08:02:32;;;;;;;21.00;9.55;;;;;;;23.66;53.88;94171.50;5126562;28;20015;-76
2022/08/04 08:04:58;;;;;;;21.30;9.13;;;;;;;23.73;53.50;94176.94;5126454;28;20027;-76
2022/08/04 08:07:23;;;;;;;18.48;8.77;;;;;;;23.82;54.31;94180.06;5126287;28;20332;-76
2022/08/04 08:09:49;;;;;;;16.02;8.15;;;;;;;23.89;54.39;94168.41;5126372;28;20023;-76
2022/08/04 08:12:15;;;;;;;14.80;8.15;;;;;;;24.03;53.97;94176.53;5126631;27;20022;-76
2022/08/04 08:14:41;;;;;;;21.00;8.75;;;;;;;24.26;54.05;94169.88;5126484;28;20016;-76
2022/08/04 08:17:07;;;;;;;22.40;8.88;;;;;;;24.45;52.37;94172.19;5126284;28;20233;-76
2022/08/04 08:19:34;;;;;;;18.85;7.47;;;;;;;24.61;51.56;94167.09;5126416;28;20038;-76
2022/08/04 08:22:00;;;;;;;26.95;7.45;;;;;;;24.44;51.73;94170.59;5126120;28;20026;-76
2022/08/04 08:24:30;;;;;;;15.25;7.13;;;;;;;24.51;51.40;94165.19;5126217;28;20221;-76
2022/08/04 08:26:57;;;;;;;13.63;7.95;;;;;;;24.74;50.96;94174.81;5126198;28;20023;-76
2022/08/04 08:29:24;;;;;;;17.15;6.38;;;;;;;24.89;50.14;94183.72;5126277;28;20245;-76
2022/08/04 08:31:50;;;;;;;12.60;6.03;;;;;;;24.94;49.63;94170.44;5125976;28;20055;-76
2022/08/04 08:34:16;;;;;;;18.00;5.93;;;;;;;25.14;50.00;94170.72;5125940;28;20024;-76
2022/08/04 08:36:52;;;;;;;13.82;6.22;;;;;;;25.15;48.77;94172.28;5125973;28;20023;-76
2022/08/04 08:39:50;;;;;;;12.10;5.95;;;;;;;25.25;48.52;94173.41;5125853;28;20024;-76
2022/08/04 08:42:15;;;;;;;11.10;5.50;;;;;;;25.30;48.04;94174.94;5120954;28;20076;-76
2022/08/04 08:45:04;;;;;;;14.52;5.57;;;;;;;25.49;47.96;94177.16;5126005;28;20051;-76
2022/08/04 08:47:48;;;;;;;10.68;4.93;;;;;;;25.65;45.49;94175.88;5125653;28;20023;-76
2022/08/04 08:50:51;;;;;;;12.93;5.38;;;;;;;25.62;46.21;94169.25;5125646;28;20076;-76
2022/08/04 08:53:28;;;;;;;14.63;5.25;;;;;;;25.70;45.73;94175.44;5125742;28;20038;-76
2022/08/04 08:56:26;;;;;;;6.57;4.13;;;;;;;25.74;45.09;94168.75;5125474;28;20111;-76
2022/08/04 08:59:09;;;;;;;13.48;3.85;;;;;;;25.94;46.12;94179.16;5106047;28;20265;-76
2022/08/04 09:02:10;;;;;;;6.45;3.53;;;;;;;26.14;45.52;94176.66;5125629;28;20214;-76
2022/08/04 09:05:09;;;;;;;9.65;3.72;;;;;;;26.42;42.62;94164.66;5103152;28;20085;-76
2022/08/04 09:08:05;;;;;;;9.20;3.60;;;;;;;26.64;43.00;94178.88;5125446;28;20340;-76
2022/08/04 09:10:51;;;;;;;6.00;3.50;;;;;;;26.85;40.97;94177.06;5125238;28;20027;-76
2022/08/04 09:13:31;;;;;;;7.45;3.60;;;;;;;26.83;40.67;94169.28;5125023;28;20031;-76
2022/08/04 09:16:25;;;;;;;9.23;4.32;;;;;;;26.87;39.40;94170.00;5124991;28;20310;-76
2022/08/04 09:19:28;;;;;;;7.00;3.40;;;;;;;26.73;39.37;94164.72;5125024;28;20169;-76
2022/08/04 09:21:56;;;;;;;5.25;3.22;;;;;;;26.82;41.07;94170.44;5122439;28;20089;-76
2022/08/04 09:24:35;;;;;;;6.68;3.15;;;;;;;26.84;40.13;94162.63;5124831;28;20027;-76
2022/08/04 09:27:26;;;;;;;7.15;3.10;;;;;;;26.92;39.72;94160.56;5124978;28;20023;-76
2022/08/04 09:29:55;;;;;;;7.07;3.65;;;;;;;27.06;38.04;94156.88;5124978;28;20030;-76
2022/08/04 09:32:33;;;;;;;9.18;3.70;;;;;;;27.02;39.16;94151.44;5125025;28;20090;-76
2022/08/04 09:35:10;;;;;;;10.00;3.70;;;;;;;27.00;39.59;94160.06;5124822;28;20062;-76
2022/08/04 09:37:41;;;;;;;16.17;4.13;;;;;;;27.05;38.78;94155.31;5124646;28;20080;-76
2022/08/04 09:40:18;;;;;;;8.65;4.00;;;;;;;27.05;40.20;94164.31;5124699;28;20020;-76
2022/08/04 09:43:12;;;;;;;11.70;3.67;;;;;;;27.11;37.91;94159.13;5124776;28;20221;-76
2022/08/04 09:45:44;;;;;;;11.88;3.40;;;;;;;27.13;37.31;94151.28;5124692;28;20024;-76
2022/08/04 09:48:31;;;;;;;8.48;3.88;;;;;;;27.24;37.79;94151.97;5124615;28;20321;-76
2022/08/04 09:50:58;;;;;;;6.97;2.63;;;;;;;27.29;36.93;94153.44;5124414;28;20229;-76
2022/08/04 09:53:51;;;;;;;10.27;2.65;;;;;;;27.27;36.15;94158.56;5124397;28;20084;-76
2022/08/04 09:56:40;;;;;;;9.50;3.00;;;;;;;27.39;35.88;94152.50;5124434;28;20024;-76
2022/08/04 09:59:26;;;;;;;4.70;2.50;;;;;;;27.46;35.48;94151.63;5124278;28;20313;-75
2022/08/04 10:02:04;;;;;;;10.70;2.38;;;;;;;27.41;34.78;94153.63;5124399;28;20030;-76
2022/08/04 10:04:32;;;;;;;7.97;2.78;;;;;;;27.45;32.79;94148.13;5124386;28;20035;-76
2022/08/04 10:07:01;;;;;;;4.60;2.15;;;;;;;27.47;32.42;94144.97;5124121;28;20233;-75
2022/08/04 10:10:02;;;;;;;4.22;2.03;;;;;;;27.48;33.38;94143.78;5124292;28;20031;-75
2022/08/04 10:12:42;;;;;;;5.97;2.58;;;;;;;27.53;34.82;94135.09;5123919;28;20028;-76
2022/08/04 10:15:35;;;;;;;5.50;2.17;;;;;;;27.56;32.19;94135.06;5124057;28;20024;-75
2022/08/04 10:18:12;;;;;;;5.35;1.88;;;;;;;27.65;31.29;94131.00;5123982;28;20063;-75
2022/08/04 10:21:02;;;;;;;4.80;2.40;;;;;;;27.81;33.87;94134.63;5124053;28;20030;-76
2022/08/04 10:23:37;;;;;;;4.47;2.30;;;;;;;28.06;32.65;94130.72;5123922;28;20023;-75
2022/08/04 10:26:24;;;;;;;13.48;2.75;;;;;;;28.12;32.87;94131.00;5123814;28;20012;-75
2022/08/04 10:28:59;;;;;;;11.15;3.78;;;;;;;28.15;31.56;94136.44;5123632;28;20084;-75
2022/08/04 10:31:41;;;;;;;7.70;3.38;;;;;;;28.15;32.62;94130.94;5123928;28;20024;-75
2022/08/04 10:34:10;;;;;;;;;;;;;;;28.13;33.27;94133.34;5124270;28;20047;-76
2022/08/04 10:36:48;;;;;;;8.95;2.85;;;;;;;28.14;33.08;94129.38;5123743;28;19904;-76
2022/08/04 10:39:18;;;;;;;7.45;2.50;;;;;;;28.12;31.66;94123.56;5123811;28;20271;-75
2022/08/04 10:42:11;;;;;;;3.78;2.08;;;;;;;28.14;31.30;94115.69;5123631;28;20015;-76
2022/08/04 10:44:47;;;;;;;3.72;2.30;;;;;;;28.17;30.46;94119.56;5123594;28;20099;-75
2022/08/04 10:47:19;;;;;;;4.65;1.90;;;;;;;28.20;30.65;94116.75;5123656;28;20031;-76
2022/08/04 10:49:50;;;;;;;6.93;2.17;;;;;;;28.27;29.03;94115.88;5123477;28;20031;-75
2022/08/04 10:52:33;;;;;;;3.45;1.90;;;;;;;28.33;28.48;94116.13;5123521;28;20033;-75
2022/08/04 10:55:34;;;;;;;3.97;1.75;;;;;;;28.38;30.75;94116.41;5123168;28;20051;-76
2022/08/04 10:58:04;;;;;;;6.45;1.90;;;;;;;28.40;28.34;94113.25;5123002;28;20046;-76
2022/08/04 11:00:32;;;;;;;4.72;2.20;;;;;;;28.46;26.62;94114.31;5123144;28;20019;-76
2022/08/04 11:03:05;;;;;;;4.43;1.92;;;;;;;28.40;26.62;94108.53;5123354;28;20023;-76
2022/08/04 11:05:53;;;;;;;2.88;1.90;;;;;;;28.49;25.47;94110.72;5122932;28;20019;-76
2022/08/04 11:08:32;;;;;;;6.15;2.22;;;;;;;28.49;25.66;94104.47;5123252;28;20024;-76
2022/08/04 11:11:08;;;;;;;7.72;2.05;;;;;;;28.56;26.05;94112.59;5123197;28;20095;-76
2022/08/04 11:14:03;;;;;;;5.57;1.38;;;;;;;28.75;26.69;94100.03;5123090;28;20023;-76
2022/08/04 11:16:32;;;;;;;2.13;1.40;;;;;;;28.87;26.94;94093.91;5123075;28;20023;-76
2022/08/04 11:19:23;;;;;;;3.28;1.98;;;;;;;29.13;27.83;94094.16;5122984;28;20047;-76
2022/08/04 11:21:55;;;;;;;6.25;1.88;;;;;;;29.36;27.92;94094.00;5123071;28;20035;-76
2022/08/04 11:24:47;;;;;;;3.85;1.75;;;;;;;29.54;27.04;94087.31;5123168;28;20081;-76
2022/08/04 11:27:18;;;;;;;7.70;2.10;;;;;;;29.55;25.16;94083.34;5122774;28;20063;-76
2022/08/04 11:30:08;;;;;;;3.55;1.65;;;;;;;29.58;25.51;94093.50;5123017;28;20032;-76
2022/08/04 11:32:41;;;;;;;3.85;2.30;;;;;;;29.72;26.13;94093.16;5123115;28;20325;-76
2022/08/04 11:35:15;;;;;;;3.30;2.05;;;;;;;29.75;25.03;94089.53;5123136;28;20047;-76
2022/08/04 11:37:44;;;;;;;3.70;2.00;;;;;;;29.61;26.27;94087.13;5122834;28;20050;-76
2022/08/04 11:40:23;;;;;;;7.78;2.22;;;;;;;29.44;26.70;94080.09;5122842;28;20016;-76
2022/08/04 11:43:00;;;;;;;5.90;2.30;;;;;;;29.53;25.78;94077.50;5122979;28;20418;-76
2022/08/04 11:45:56;;;;;;;7.07;2.00;;;;;;;29.71;27.46;94077.09;5122909;28;20317;-76
2022/08/04 11:48:36;;;;;;;7.22;2.17;;;;;;;29.86;27.33;94069.25;5120755;28;20069;-76
2022/08/04 11:51:04;;;;;;;4.78;2.50;;;;;;;30.02;27.62;94074.72;5122910;28;20030;-76
2022/08/04 11:53:32;;;;;;;7.60;2.63;;;;;;;30.12;28.00;94079.16;5123046;28;20034;-76
2022/08/04 11:56:02;;;;;;;3.80;2.25;;;;;;;30.40;26.98;94087.88;5122902;28;20030;-76
2022/08/04 11:58:29;;;;;;;3.72;1.90;;;;;;;30.65;26.17;94076.16;5122894;28;20035;-76
2022/08/04 12:01:19;;;;;;;6.82;2.13;;;;;;;30.85;25.17;94078.72;5123030;28;20199;-76
2022/08/04 12:04:15;;;;;;;3.38;2.08;;;;;;;30.91;25.97;94077.00;5122898;28;20046;-76
2022/08/04 12:07:20;;;;;;;6.75;2.10;;;;;;;31.16;25.48;94067.19;5122728;28;20076;-76
2022/08/04 12:10:14;;;;;;;5.00;2.30;;;;;;;31.19;24.43;94082.84;5104524;28;20383;-76
2022/08/04 12:12:58;;;;;;;3.95;1.77;;;;;;;31.09;24.89;94065.44;5122607;28;20019;-76
2022/08/04 12:15:36;;;;;;;2.78;1.60;;;;;;;31.14;24.57;94069.63;5122691;28;20023;-76
2022/08/04 12:18:23;;;;;;;6.95;2.47;;;;;;;31.06;24.83;94074.59;5124182;28;20059;-76